RYS73IQ EPWR-LSGG
Flight info
| Callsign | RYS73IQ |
|---|---|
| Flight time | 1h 35m |
| Altitude | 36000 |
| Route | ULGIL T707 TOMTI DCT ASTEL DCT KONAR DCT OKG N869 AMOSA DCT DKB DCT TEDGO N869 NATOR DCT LUTIX N869 BENOT |
| Aircraft | B739/M-SDE2E3FGHIRWXY/LB1 |
Departure
| Time | 2026-05-08 16:43 |
|---|---|
| Airport | Copernicus Wrocław Airport (EPWR) |
Arrival
| Time | 2026-05-08 18:19 |
|---|---|
| Airport | Geneva International Airport (LSGG) |
| Time | Latitude | Longitude | Altitude | Speed | Heading |
|---|---|---|---|---|---|
| 2026-05-08 15:52 | 51.10898 | 16.87881 | 402 ft | 0 kts | 25° |
| 2026-05-08 16:33 | 51.10896 | 16.87880 | 402 ft | 2 kts | 25° |
| 2026-05-08 16:33 | 51.10872 | 16.87863 | 402 ft | 4 kts | 18° |
| 2026-05-08 16:33 | 51.10847 | 16.87856 | 400 ft | 4 kts | 349° |
| 2026-05-08 16:34 | 51.10826 | 16.87873 | 397 ft | 4 kts | 302° |
| 2026-05-08 16:34 | 51.10823 | 16.87881 | 399 ft | 1 kts | 296° |
| 2026-05-08 16:39 | 51.10826 | 16.87873 | 401 ft | 2 kts | 296° |
| 2026-05-08 16:39 | 51.10839 | 16.87829 | 398 ft | 7 kts | 296° |
| 2026-05-08 16:39 | 51.10865 | 16.87745 | 402 ft | 10 kts | 296° |
| 2026-05-08 16:39 | 51.10896 | 16.87645 | 402 ft | 10 kts | 296° |
| 2026-05-08 16:40 | 51.10926 | 16.87548 | 402 ft | 10 kts | 296° |
| 2026-05-08 16:40 | 51.10948 | 16.87451 | 402 ft | 9 kts | 263° |
| 2026-05-08 16:40 | 51.10901 | 16.87383 | 402 ft | 9 kts | 205° |
| 2026-05-08 16:40 | 51.10844 | 16.87341 | 402 ft | 9 kts | 205° |
| 2026-05-08 16:41 | 51.10789 | 16.87298 | 402 ft | 9 kts | 207° |
| 2026-05-08 16:41 | 51.10777 | 16.87289 | 402 ft | 0 kts | 207° |
| 2026-05-08 16:41 | 51.10776 | 16.87289 | 402 ft | 0 kts | 207° |
| 2026-05-08 16:42 | 51.10732 | 16.87253 | 403 ft | 8 kts | 207° |
| 2026-05-08 16:42 | 51.10680 | 16.87237 | 400 ft | 8 kts | 147° |
| 2026-05-08 16:42 | 51.10653 | 16.87318 | 401 ft | 8 kts | 114° |
| 2026-05-08 16:42 | 51.10599 | 16.87506 | 400 ft | 48 kts | 116° |
| 2026-05-08 16:43 | 51.10343 | 16.88341 | 405 ft | 118 kts | 116° |
| 2026-05-08 16:43 | 51.09906 | 16.89795 | 406 ft | 171 kts | 114° |
| 2026-05-08 16:43 | 51.09378 | 16.91601 | 843 ft | 184 kts | 110° |
| 2026-05-08 16:43 | 51.08877 | 16.93504 | 1679 ft | 185 kts | 114° |
| 2026-05-08 16:44 | 51.08304 | 16.95333 | 2402 ft | 192 kts | 115° |
| 2026-05-08 16:44 | 51.07413 | 16.97093 | 2658 ft | 217 kts | 144° |
| 2026-05-08 16:44 | 51.05998 | 16.97910 | 3198 ft | 220 kts | 180° |
| 2026-05-08 16:44 | 51.04515 | 16.97455 | 3691 ft | 225 kts | 204° |
| 2026-05-08 16:45 | 51.03089 | 16.96397 | 4357 ft | 227 kts | 209° |
| 2026-05-08 16:45 | 51.01657 | 16.95257 | 5179 ft | 227 kts | 208° |
| 2026-05-08 16:45 | 51.00257 | 16.94151 | 5970 ft | 229 kts | 208° |
| 2026-05-08 16:45 | 50.98823 | 16.93018 | 6722 ft | 231 kts | 208° |
| 2026-05-08 16:46 | 50.97374 | 16.91885 | 7474 ft | 233 kts | 208° |
| 2026-05-08 16:46 | 50.95993 | 16.90476 | 7963 ft | 246 kts | 230° |
| 2026-05-08 16:46 | 50.95293 | 16.87933 | 8262 ft | 265 kts | 265° |
| 2026-05-08 16:46 | 50.95287 | 16.84979 | 8965 ft | 271 kts | 270° |
| 2026-05-08 16:47 | 50.95335 | 16.81967 | 9734 ft | 275 kts | 270° |
| 2026-05-08 16:47 | 50.95384 | 16.78920 | 10472 ft | 280 kts | 270° |
| 2026-05-08 16:47 | 50.95427 | 16.75717 | 10700 ft | 303 kts | 270° |
| 2026-05-08 16:47 | 50.95465 | 16.72255 | 10880 ft | 325 kts | 269° |
| 2026-05-08 16:48 | 50.95497 | 16.68602 | 11325 ft | 336 kts | 269° |
| 2026-05-08 16:48 | 50.95523 | 16.64865 | 12006 ft | 340 kts | 269° |
| 2026-05-08 16:48 | 50.95545 | 16.61107 | 12758 ft | 342 kts | 269° |
| 2026-05-08 16:48 | 50.95563 | 16.57322 | 13477 ft | 345 kts | 269° |
| 2026-05-08 16:49 | 50.95578 | 16.53488 | 14140 ft | 350 kts | 269° |
| 2026-05-08 16:49 | 50.95591 | 16.49615 | 14751 ft | 353 kts | 269° |
| 2026-05-08 16:49 | 50.95601 | 16.45706 | 15377 ft | 356 kts | 269° |
| 2026-05-08 16:49 | 50.95610 | 16.41764 | 16009 ft | 359 kts | 268° |
| 2026-05-08 16:50 | 50.95618 | 16.37789 | 16635 ft | 362 kts | 268° |
| 2026-05-08 16:50 | 50.95624 | 16.33775 | 17224 ft | 366 kts | 268° |
| 2026-05-08 16:50 | 50.95628 | 16.29719 | 17827 ft | 370 kts | 268° |
| 2026-05-08 16:50 | 50.95631 | 16.25621 | 18409 ft | 374 kts | 268° |
| 2026-05-08 16:51 | 50.95633 | 16.21475 | 18916 ft | 377 kts | 268° |
| 2026-05-08 16:51 | 50.95633 | 16.17299 | 19444 ft | 380 kts | 267° |
| 2026-05-08 16:51 | 50.95632 | 16.13100 | 19984 ft | 383 kts | 267° |
| 2026-05-08 16:51 | 50.95630 | 16.08853 | 20501 ft | 386 kts | 267° |
| 2026-05-08 16:52 | 50.95625 | 16.04584 | 21014 ft | 389 kts | 267° |
| 2026-05-08 16:52 | 50.95620 | 16.00276 | 21531 ft | 392 kts | 267° |
| 2026-05-08 16:52 | 50.95612 | 15.95935 | 22026 ft | 395 kts | 267° |
| 2026-05-08 16:52 | 50.95603 | 15.91559 | 22545 ft | 398 kts | 267° |
| 2026-05-08 16:53 | 50.95580 | 15.82702 | 23526 ft | 405 kts | 266° |
| 2026-05-08 16:53 | 50.95565 | 15.78227 | 23967 ft | 408 kts | 266° |
| 2026-05-08 16:53 | 50.95549 | 15.73712 | 24413 ft | 410 kts | 266° |
| 2026-05-08 16:54 | 50.95532 | 15.69180 | 24853 ft | 412 kts | 266° |
| 2026-05-08 16:54 | 50.95512 | 15.64630 | 25281 ft | 414 kts | 266° |
| 2026-05-08 16:54 | 50.95490 | 15.60057 | 25689 ft | 416 kts | 266° |
| 2026-05-08 16:54 | 50.95466 | 15.55453 | 26084 ft | 419 kts | 266° |
| 2026-05-08 16:55 | 50.95441 | 15.50827 | 26475 ft | 421 kts | 266° |
| 2026-05-08 16:55 | 50.95414 | 15.46171 | 26862 ft | 423 kts | 266° |
| 2026-05-08 16:55 | 50.95385 | 15.41492 | 27235 ft | 426 kts | 266° |
| 2026-05-08 16:55 | 50.95354 | 15.36779 | 27601 ft | 429 kts | 265° |
| 2026-05-08 16:56 | 50.95300 | 15.32032 | 27959 ft | 430 kts | 263° |
| 2026-05-08 16:56 | 50.94918 | 15.27340 | 28283 ft | 429 kts | 254° |
| 2026-05-08 16:56 | 50.94082 | 15.22811 | 28629 ft | 429 kts | 249° |
| 2026-05-08 16:56 | 50.93131 | 15.18327 | 28971 ft | 431 kts | 248° |
| 2026-05-08 16:57 | 50.92168 | 15.13810 | 29303 ft | 434 kts | 248° |
| 2026-05-08 16:57 | 50.91210 | 15.09262 | 29693 ft | 435 kts | 249° |
| 2026-05-08 16:57 | 50.90264 | 15.04715 | 30213 ft | 433 kts | 249° |
| 2026-05-08 16:57 | 50.89331 | 15.00192 | 30646 ft | 432 kts | 249° |
| 2026-05-08 16:58 | 50.88400 | 14.95667 | 30963 ft | 433 kts | 249° |
| 2026-05-08 16:58 | 50.87464 | 14.91132 | 31227 ft | 434 kts | 249° |
| 2026-05-08 16:58 | 50.86521 | 14.86587 | 31543 ft | 435 kts | 249° |
| 2026-05-08 16:58 | 50.85554 | 14.82059 | 31912 ft | 433 kts | 248° |
| 2026-05-08 16:59 | 50.84552 | 14.77570 | 32250 ft | 433 kts | 248° |
| 2026-05-08 16:59 | 50.83545 | 14.73144 | 32553 ft | 433 kts | 248° |
| 2026-05-08 16:59 | 50.82522 | 14.68668 | 32890 ft | 433 kts | 248° |
| 2026-05-08 16:59 | 50.81500 | 14.64195 | 33232 ft | 432 kts | 248° |
| 2026-05-08 17:00 | 50.80481 | 14.59724 | 33566 ft | 432 kts | 248° |
| 2026-05-08 17:00 | 50.79463 | 14.55255 | 33881 ft | 431 kts | 248° |
| 2026-05-08 17:00 | 50.78448 | 14.50801 | 34198 ft | 431 kts | 249° |
| 2026-05-08 17:00 | 50.77433 | 14.46352 | 34433 ft | 431 kts | 249° |
| 2026-05-08 17:01 | 50.76416 | 14.41899 | 34656 ft | 431 kts | 249° |
| 2026-05-08 17:01 | 50.75399 | 14.37450 | 34888 ft | 431 kts | 249° |
| 2026-05-08 17:01 | 50.74378 | 14.32998 | 35118 ft | 431 kts | 249° |
| 2026-05-08 17:01 | 50.73357 | 14.28552 | 35338 ft | 431 kts | 249° |
| 2026-05-08 17:02 | 50.72333 | 14.24106 | 35556 ft | 431 kts | 249° |
| 2026-05-08 17:02 | 50.71309 | 14.19667 | 35778 ft | 431 kts | 249° |
| 2026-05-08 17:02 | 50.70285 | 14.15238 | 35989 ft | 431 kts | 249° |
| 2026-05-08 17:02 | 50.69255 | 14.10795 | 36143 ft | 431 kts | 249° |
| 2026-05-08 17:03 | 50.67183 | 14.01880 | 36144 ft | 432 kts | 249° |
| 2026-05-08 17:03 | 50.65117 | 13.93025 | 36135 ft | 429 kts | 249° |
| 2026-05-08 17:04 | 50.63054 | 13.84221 | 36141 ft | 427 kts | 249° |
| 2026-05-08 17:04 | 50.60995 | 13.75473 | 36141 ft | 426 kts | 249° |
| 2026-05-08 17:05 | 50.58933 | 13.66745 | 36150 ft | 425 kts | 249° |
| 2026-05-08 17:05 | 50.56862 | 13.58015 | 36139 ft | 426 kts | 249° |
| 2026-05-08 17:06 | 50.54779 | 13.49267 | 36144 ft | 428 kts | 249° |
| 2026-05-08 17:06 | 50.52677 | 13.40477 | 36143 ft | 430 kts | 249° |
| 2026-05-08 17:07 | 50.50558 | 13.31649 | 36144 ft | 432 kts | 249° |
| 2026-05-08 17:07 | 50.48428 | 13.22809 | 36133 ft | 434 kts | 249° |
| 2026-05-08 17:08 | 50.46282 | 13.13939 | 36137 ft | 435 kts | 249° |
| 2026-05-08 17:08 | 50.43703 | 13.05452 | 36138 ft | 434 kts | 236° |
| 2026-05-08 17:09 | 50.39839 | 12.98201 | 36136 ft | 434 kts | 228° |
| 2026-05-08 17:09 | 50.35764 | 12.91216 | 36129 ft | 434 kts | 228° |
| 2026-05-08 17:10 | 50.31682 | 12.84162 | 36124 ft | 434 kts | 228° |
| 2026-05-08 17:10 | 50.27682 | 12.77205 | 36126 ft | 433 kts | 229° |
| 2026-05-08 17:11 | 50.23658 | 12.70209 | 36127 ft | 432 kts | 229° |
| 2026-05-08 17:11 | 50.19638 | 12.63241 | 36122 ft | 431 kts | 229° |
| 2026-05-08 17:12 | 50.15625 | 12.56305 | 36120 ft | 431 kts | 228° |
| 2026-05-08 17:12 | 50.11611 | 12.49384 | 36112 ft | 430 kts | 228° |
| 2026-05-08 17:13 | 50.07660 | 12.42410 | 36102 ft | 429 kts | 234° |
| 2026-05-08 17:13 | 50.04816 | 12.34294 | 36105 ft | 428 kts | 249° |
| 2026-05-08 17:14 | 50.02706 | 12.25637 | 36102 ft | 428 kts | 249° |
| 2026-05-08 17:14 | 50.00578 | 12.16979 | 36096 ft | 429 kts | 249° |
| 2026-05-08 17:15 | 49.98407 | 12.08333 | 36103 ft | 430 kts | 249° |
| 2026-05-08 17:15 | 49.96221 | 11.99690 | 36090 ft | 431 kts | 249° |
| 2026-05-08 17:16 | 49.94025 | 11.91021 | 36093 ft | 431 kts | 249° |
| 2026-05-08 17:16 | 49.91866 | 11.82328 | 36088 ft | 432 kts | 249° |
| 2026-05-08 17:17 | 49.89708 | 11.73631 | 36087 ft | 432 kts | 249° |
| 2026-05-08 17:17 | 49.87550 | 11.64929 | 36085 ft | 432 kts | 250° |
| 2026-05-08 17:18 | 49.85505 | 11.56161 | 36092 ft | 432 kts | 250° |
| 2026-05-08 17:18 | 49.83318 | 11.47510 | 36093 ft | 431 kts | 247° |
| 2026-05-08 17:19 | 49.80976 | 11.38960 | 36095 ft | 431 kts | 248° |
| 2026-05-08 17:19 | 49.78805 | 11.30325 | 36086 ft | 430 kts | 250° |
| 2026-05-08 17:20 | 49.76274 | 11.21981 | 36091 ft | 429 kts | 237° |
| 2026-05-08 17:20 | 49.72393 | 11.15056 | 36092 ft | 430 kts | 226° |
| 2026-05-08 17:21 | 49.68191 | 11.08470 | 36081 ft | 430 kts | 227° |
| 2026-05-08 17:21 | 49.64043 | 11.01833 | 36072 ft | 430 kts | 227° |
| 2026-05-08 17:22 | 49.59875 | 10.95243 | 36077 ft | 429 kts | 227° |
| 2026-05-08 17:22 | 49.55698 | 10.88657 | 36074 ft | 429 kts | 227° |
| 2026-05-08 17:23 | 49.51525 | 10.82087 | 36080 ft | 429 kts | 227° |
| 2026-05-08 17:23 | 49.47353 | 10.75511 | 36089 ft | 429 kts | 227° |
| 2026-05-08 17:24 | 49.43862 | 10.70000 | 36097 ft | 429 kts | 227° |
| 2026-05-08 17:24 | 49.39721 | 10.63475 | 36089 ft | 430 kts | 227° |
| 2026-05-08 17:25 | 49.35544 | 10.56914 | 36094 ft | 430 kts | 227° |
| 2026-05-08 17:25 | 49.31360 | 10.50359 | 36089 ft | 430 kts | 227° |
| 2026-05-08 17:26 | 49.27172 | 10.43814 | 36097 ft | 430 kts | 227° |
| 2026-05-08 17:26 | 49.22983 | 10.37286 | 36098 ft | 430 kts | 227° |
| 2026-05-08 17:27 | 49.18788 | 10.30761 | 36103 ft | 430 kts | 227° |
| 2026-05-08 17:27 | 49.14594 | 10.24251 | 36094 ft | 430 kts | 228° |
| 2026-05-08 17:28 | 49.10765 | 10.17280 | 36084 ft | 428 kts | 232° |
| 2026-05-08 17:28 | 49.07058 | 10.10177 | 36077 ft | 428 kts | 233° |
| 2026-05-08 17:29 | 49.03343 | 10.03100 | 36079 ft | 427 kts | 232° |
| 2026-05-08 17:29 | 48.99608 | 9.96053 | 36073 ft | 427 kts | 232° |
| 2026-05-08 17:30 | 48.95865 | 9.89025 | 36069 ft | 427 kts | 232° |
| 2026-05-08 17:30 | 48.92122 | 9.82018 | 36063 ft | 427 kts | 232° |
| 2026-05-08 17:31 | 48.88371 | 9.75014 | 36067 ft | 426 kts | 232° |
| 2026-05-08 17:31 | 48.84650 | 9.68083 | 36049 ft | 426 kts | 232° |
| 2026-05-08 17:32 | 48.80878 | 9.61076 | 36046 ft | 426 kts | 232° |
| 2026-05-08 17:32 | 48.77149 | 9.54165 | 36040 ft | 425 kts | 232° |
| 2026-05-08 17:33 | 48.73402 | 9.47239 | 36046 ft | 425 kts | 232° |
| 2026-05-08 17:33 | 48.69653 | 9.40328 | 35954 ft | 424 kts | 232° |
| 2026-05-08 17:34 | 48.65916 | 9.33453 | 36037 ft | 422 kts | 232° |
| 2026-05-08 17:34 | 48.62179 | 9.26597 | 36043 ft | 422 kts | 232° |
| 2026-05-08 17:35 | 48.58676 | 9.19508 | 36046 ft | 421 kts | 236° |
| 2026-05-08 17:35 | 48.55320 | 9.12268 | 36043 ft | 421 kts | 236° |
| 2026-05-08 17:36 | 48.51944 | 9.05026 | 36047 ft | 422 kts | 236° |
| 2026-05-08 17:36 | 48.48543 | 8.97817 | 36037 ft | 422 kts | 236° |
| 2026-05-08 17:37 | 48.45126 | 8.90621 | 36033 ft | 423 kts | 236° |
| 2026-05-08 17:37 | 48.41698 | 8.83423 | 36025 ft | 423 kts | 236° |
| 2026-05-08 17:38 | 48.38265 | 8.76234 | 36029 ft | 423 kts | 236° |
| 2026-05-08 17:38 | 48.35003 | 8.69420 | 36027 ft | 423 kts | 236° |
| 2026-05-08 17:39 | 48.31566 | 8.62255 | 36025 ft | 422 kts | 236° |
| 2026-05-08 17:39 | 48.28131 | 8.55116 | 36024 ft | 421 kts | 236° |
| 2026-05-08 17:40 | 48.24695 | 8.47991 | 36024 ft | 421 kts | 236° |
| 2026-05-08 17:40 | 48.21261 | 8.40888 | 36023 ft | 420 kts | 236° |
| 2026-05-08 17:41 | 48.17746 | 8.33909 | 36017 ft | 421 kts | 230° |
| 2026-05-08 17:41 | 48.13238 | 8.28290 | 36028 ft | 425 kts | 216° |
| 2026-05-08 17:42 | 48.08248 | 8.23544 | 36027 ft | 425 kts | 216° |
| 2026-05-08 17:42 | 48.03246 | 8.18817 | 36017 ft | 425 kts | 216° |
| 2026-05-08 17:43 | 47.98296 | 8.14098 | 36024 ft | 425 kts | 216° |
| 2026-05-08 17:43 | 47.93321 | 8.09338 | 36016 ft | 425 kts | 216° |
| 2026-05-08 17:44 | 47.88351 | 8.04585 | 36014 ft | 424 kts | 216° |
| 2026-05-08 17:44 | 47.83383 | 7.99847 | 36020 ft | 424 kts | 217° |
| 2026-05-08 17:45 | 47.78401 | 7.95106 | 36014 ft | 425 kts | 217° |
| 2026-05-08 17:45 | 47.73421 | 7.90378 | 36004 ft | 425 kts | 217° |
| 2026-05-08 17:46 | 47.68431 | 7.85653 | 36005 ft | 425 kts | 217° |
| 2026-05-08 17:46 | 47.63437 | 7.80934 | 35994 ft | 426 kts | 217° |
| 2026-05-08 17:47 | 47.58449 | 7.76232 | 35994 ft | 425 kts | 217° |
| 2026-05-08 17:47 | 47.54298 | 7.72328 | 35995 ft | 425 kts | 217° |
| 2026-05-08 17:48 | 47.48500 | 7.66886 | 35976 ft | 421 kts | 217° |
| 2026-05-08 17:48 | 47.43636 | 7.62339 | 35982 ft | 410 kts | 217° |
| 2026-05-08 17:49 | 47.38831 | 7.57846 | 35808 ft | 410 kts | 217° |
| 2026-05-08 17:49 | 47.36427 | 7.55602 | 35525 ft | 407 kts | 217° |
| 2026-05-08 17:49 | 47.34046 | 7.53385 | 35052 ft | 403 kts | 218° |
| 2026-05-08 17:50 | 47.31693 | 7.51196 | 34691 ft | 397 kts | 218° |
| 2026-05-08 17:50 | 47.29362 | 7.49029 | 34266 ft | 394 kts | 218° |
| 2026-05-08 17:50 | 47.27058 | 7.46889 | 33857 ft | 390 kts | 219° |
| 2026-05-08 17:50 | 47.24773 | 7.44766 | 33384 ft | 386 kts | 219° |
| 2026-05-08 17:51 | 47.22517 | 7.42673 | 32958 ft | 383 kts | 219° |
| 2026-05-08 17:51 | 47.20271 | 7.40593 | 32502 ft | 379 kts | 219° |
| 2026-05-08 17:51 | 47.18058 | 7.38521 | 32045 ft | 374 kts | 223° |
| 2026-05-08 17:51 | 47.16077 | 7.36146 | 31660 ft | 362 kts | 231° |
| 2026-05-08 17:52 | 47.14437 | 7.33423 | 31260 ft | 352 kts | 238° |
| 2026-05-08 17:52 | 47.12932 | 7.30595 | 30844 ft | 350 kts | 238° |
| 2026-05-08 17:52 | 47.09960 | 7.25003 | 30009 ft | 345 kts | 238° |
| 2026-05-08 17:53 | 47.08473 | 7.22239 | 29541 ft | 343 kts | 238° |
| 2026-05-08 17:53 | 47.06997 | 7.19514 | 29135 ft | 340 kts | 237° |
| 2026-05-08 17:53 | 47.05532 | 7.16814 | 28717 ft | 336 kts | 237° |
| 2026-05-08 17:53 | 47.04079 | 7.14151 | 28327 ft | 333 kts | 237° |
| 2026-05-08 17:54 | 47.02636 | 7.11513 | 27951 ft | 330 kts | 236° |
| 2026-05-08 17:54 | 47.01206 | 7.08901 | 27521 ft | 328 kts | 236° |
| 2026-05-08 17:54 | 46.99784 | 7.06304 | 27135 ft | 325 kts | 236° |
| 2026-05-08 17:54 | 46.98395 | 7.03770 | 26751 ft | 322 kts | 236° |
| 2026-05-08 17:55 | 46.96998 | 7.01219 | 26359 ft | 320 kts | 235° |
| 2026-05-08 17:55 | 46.95610 | 6.98689 | 25983 ft | 318 kts | 235° |
| 2026-05-08 17:55 | 46.94228 | 6.96173 | 25609 ft | 317 kts | 234° |
| 2026-05-08 17:55 | 46.92844 | 6.93663 | 25240 ft | 318 kts | 233° |
| 2026-05-08 17:56 | 46.91230 | 6.91381 | 24874 ft | 329 kts | 221° |
| 2026-05-08 17:56 | 46.89299 | 6.89497 | 24553 ft | 339 kts | 210° |
| 2026-05-08 17:56 | 46.87138 | 6.88065 | 24179 ft | 342 kts | 206° |
| 2026-05-08 17:56 | 46.84936 | 6.86763 | 23784 ft | 340 kts | 205° |
| 2026-05-08 17:57 | 46.82738 | 6.85489 | 23354 ft | 339 kts | 204° |
| 2026-05-08 17:57 | 46.80553 | 6.84214 | 22899 ft | 337 kts | 205° |
| 2026-05-08 17:57 | 46.78386 | 6.82935 | 22493 ft | 335 kts | 205° |
| 2026-05-08 17:57 | 46.76228 | 6.81651 | 22072 ft | 334 kts | 205° |
| 2026-05-08 17:58 | 46.74092 | 6.80374 | 21689 ft | 330 kts | 205° |
| 2026-05-08 17:58 | 46.71971 | 6.79103 | 21293 ft | 328 kts | 205° |
| 2026-05-08 17:58 | 46.69869 | 6.77844 | 20931 ft | 326 kts | 205° |
| 2026-05-08 17:58 | 46.67777 | 6.76593 | 20534 ft | 324 kts | 205° |
| 2026-05-08 17:59 | 46.65704 | 6.75340 | 20158 ft | 322 kts | 207° |
| 2026-05-08 17:59 | 46.63706 | 6.73898 | 19772 ft | 319 kts | 210° |
| 2026-05-08 17:59 | 46.61767 | 6.72359 | 19391 ft | 317 kts | 211° |
| 2026-05-08 17:59 | 46.59847 | 6.70805 | 19021 ft | 316 kts | 211° |
| 2026-05-08 18:00 | 46.57930 | 6.69260 | 18645 ft | 315 kts | 211° |
| 2026-05-08 18:00 | 46.54095 | 6.66204 | 17852 ft | 314 kts | 210° |
| 2026-05-08 18:00 | 46.52179 | 6.64689 | 17435 ft | 313 kts | 210° |
| 2026-05-08 18:01 | 46.50266 | 6.63181 | 17053 ft | 312 kts | 210° |
| 2026-05-08 18:01 | 46.48365 | 6.61686 | 16675 ft | 310 kts | 210° |
| 2026-05-08 18:01 | 46.46471 | 6.60199 | 16304 ft | 308 kts | 210° |
| 2026-05-08 18:01 | 46.44590 | 6.58722 | 15931 ft | 307 kts | 210° |
| 2026-05-08 18:02 | 46.42715 | 6.57253 | 15568 ft | 306 kts | 209° |
| 2026-05-08 18:02 | 46.41477 | 6.56284 | 15330 ft | 305 kts | 209° |
| 2026-05-08 18:02 | 46.39094 | 6.54113 | 14904 ft | 300 kts | 223° |
| 2026-05-08 18:02 | 46.37635 | 6.52006 | 14706 ft | 293 kts | 226° |
| 2026-05-08 18:03 | 46.36238 | 6.49892 | 14482 ft | 288 kts | 226° |
| 2026-05-08 18:03 | 46.34862 | 6.47806 | 14274 ft | 284 kts | 226° |
| 2026-05-08 18:03 | 46.33497 | 6.45750 | 14065 ft | 282 kts | 226° |
| 2026-05-08 18:03 | 46.32134 | 6.43712 | 13877 ft | 282 kts | 225° |
| 2026-05-08 18:04 | 46.30760 | 6.41669 | 13650 ft | 284 kts | 225° |
| 2026-05-08 18:04 | 46.29374 | 6.39614 | 13434 ft | 287 kts | 225° |
| 2026-05-08 18:04 | 46.27980 | 6.37552 | 13217 ft | 287 kts | 225° |
| 2026-05-08 18:04 | 46.26583 | 6.35490 | 13001 ft | 286 kts | 225° |
| 2026-05-08 18:05 | 46.25212 | 6.33469 | 12789 ft | 285 kts | 225° |
| 2026-05-08 18:05 | 46.23825 | 6.31425 | 12588 ft | 285 kts | 225° |
| 2026-05-08 18:05 | 46.22439 | 6.29386 | 12382 ft | 284 kts | 225° |
| 2026-05-08 18:05 | 46.21056 | 6.27354 | 12180 ft | 283 kts | 225° |
| 2026-05-08 18:06 | 46.19676 | 6.25329 | 11969 ft | 283 kts | 225° |
| 2026-05-08 18:06 | 46.18304 | 6.23298 | 11767 ft | 282 kts | 226° |
| 2026-05-08 18:06 | 46.16940 | 6.21270 | 11557 ft | 281 kts | 226° |
| 2026-05-08 18:06 | 46.15584 | 6.19254 | 11371 ft | 280 kts | 226° |
| 2026-05-08 18:07 | 46.14228 | 6.17241 | 11151 ft | 279 kts | 226° |
| 2026-05-08 18:07 | 46.12878 | 6.15239 | 10966 ft | 278 kts | 226° |
| 2026-05-08 18:07 | 46.11527 | 6.13239 | 10753 ft | 279 kts | 226° |
| 2026-05-08 18:07 | 46.10176 | 6.11240 | 10552 ft | 278 kts | 226° |
| 2026-05-08 18:08 | 46.08824 | 6.09251 | 10343 ft | 278 kts | 225° |
| 2026-05-08 18:08 | 46.07464 | 6.07285 | 10114 ft | 276 kts | 225° |
| 2026-05-08 18:08 | 46.06118 | 6.05348 | 9939 ft | 270 kts | 225° |
| 2026-05-08 18:08 | 46.04801 | 6.03452 | 9720 ft | 265 kts | 225° |
| 2026-05-08 18:09 | 46.03510 | 6.01594 | 9516 ft | 261 kts | 225° |
| 2026-05-08 18:09 | 46.02235 | 5.99759 | 9330 ft | 259 kts | 225° |
| 2026-05-08 18:09 | 46.00961 | 5.97925 | 9155 ft | 260 kts | 225° |
| 2026-05-08 18:09 | 45.99670 | 5.96067 | 8970 ft | 264 kts | 225° |
| 2026-05-08 18:10 | 45.98373 | 5.94202 | 8797 ft | 261 kts | 225° |
| 2026-05-08 18:10 | 45.97133 | 5.92421 | 8718 ft | 245 kts | 225° |
| 2026-05-08 18:10 | 45.96335 | 5.91276 | 8633 ft | 235 kts | 225° |
| 2026-05-08 18:10 | 45.94940 | 5.89090 | 8502 ft | 215 kts | 241° |
| 2026-05-08 18:11 | 45.94624 | 5.87780 | 8416 ft | 206 kts | 262° |
| 2026-05-08 18:11 | 45.94764 | 5.85789 | 8328 ft | 194 kts | 288° |
| 2026-05-08 18:11 | 45.95472 | 5.84129 | 7881 ft | 204 kts | 312° |
| 2026-05-08 18:11 | 45.96607 | 5.82996 | 7645 ft | 198 kts | 336° |
| 2026-05-08 18:12 | 45.97873 | 5.82301 | 7493 ft | 189 kts | 336° |
| 2026-05-08 18:12 | 45.99080 | 5.81616 | 7374 ft | 189 kts | 336° |
| 2026-05-08 18:12 | 46.00320 | 5.80912 | 7245 ft | 194 kts | 336° |
| 2026-05-08 18:12 | 46.01631 | 5.80350 | 6972 ft | 203 kts | 359° |
| 2026-05-08 18:13 | 46.02903 | 5.81043 | 6826 ft | 198 kts | 37° |
| 2026-05-08 18:13 | 46.04011 | 5.82282 | 6551 ft | 203 kts | 36° |
| 2026-05-08 18:13 | 46.05104 | 5.83538 | 6284 ft | 200 kts | 40° |
| 2026-05-08 18:13 | 46.06121 | 5.84876 | 6001 ft | 195 kts | 43° |
| 2026-05-08 18:14 | 46.07079 | 5.86237 | 5755 ft | 193 kts | 45° |
| 2026-05-08 18:14 | 46.08023 | 5.87615 | 5508 ft | 194 kts | 45° |
| 2026-05-08 18:14 | 46.08969 | 5.89008 | 5241 ft | 196 kts | 45° |
| 2026-05-08 18:14 | 46.09918 | 5.90402 | 5010 ft | 196 kts | 45° |
| 2026-05-08 18:15 | 46.10864 | 5.91799 | 4735 ft | 190 kts | 46° |
| 2026-05-08 18:15 | 46.11756 | 5.93123 | 4515 ft | 177 kts | 46° |
| 2026-05-08 18:15 | 46.12596 | 5.94365 | 4250 ft | 170 kts | 46° |
| 2026-05-08 18:15 | 46.13414 | 5.95574 | 4034 ft | 169 kts | 46° |
| 2026-05-08 18:16 | 46.14239 | 5.96793 | 3810 ft | 171 kts | 46° |
| 2026-05-08 18:16 | 46.15069 | 5.98018 | 3577 ft | 170 kts | 46° |
| 2026-05-08 18:16 | 46.15889 | 5.99229 | 3354 ft | 169 kts | 46° |
| 2026-05-08 18:16 | 46.16708 | 6.00436 | 3135 ft | 168 kts | 47° |
| 2026-05-08 18:17 | 46.17518 | 6.01633 | 2919 ft | 165 kts | 46° |
| 2026-05-08 18:17 | 46.18313 | 6.02803 | 2710 ft | 161 kts | 46° |
| 2026-05-08 18:17 | 46.19092 | 6.03932 | 2540 ft | 158 kts | 45° |
| 2026-05-08 18:17 | 46.19882 | 6.05034 | 2370 ft | 157 kts | 45° |
| 2026-05-08 18:18 | 46.20631 | 6.06159 | 2167 ft | 156 kts | 46° |
| 2026-05-08 18:18 | 46.21391 | 6.07289 | 1906 ft | 157 kts | 47° |
| 2026-05-08 18:18 | 46.22138 | 6.08433 | 1671 ft | 155 kts | 47° |
| 2026-05-08 18:18 | 46.22906 | 6.09518 | 1425 ft | 150 kts | 52° |
| 2026-05-08 18:19 | 46.23548 | 6.10510 | 1384 ft | 112 kts | 46° |
| 2026-05-08 18:19 | 46.23944 | 6.11096 | 1376 ft | 51 kts | 45° |
| 2026-05-08 18:19 | 46.24075 | 6.11283 | 1375 ft | 18 kts | 44° |
| 2026-05-08 18:19 | 46.24161 | 6.11411 | 1372 ft | 17 kts | 46° |
| 2026-05-08 18:20 | 46.24240 | 6.11540 | 1373 ft | 17 kts | 52° |
| 2026-05-08 18:20 | 46.24299 | 6.11683 | 1370 ft | 16 kts | 65° |
| 2026-05-08 18:20 | 46.24338 | 6.11819 | 1366 ft | 13 kts | 76° |
| 2026-05-08 18:20 | 46.24342 | 6.11875 | 1365 ft | 0 kts | 91° |
| 2026-05-08 18:21 | 46.24342 | 6.11881 | 1365 ft | 2 kts | 95° |
| 2026-05-08 18:22 | 46.24328 | 6.11920 | 1363 ft | 7 kts | 136° |
| 2026-05-08 18:22 | 46.24274 | 6.11911 | 1360 ft | 9 kts | 216° |
| 2026-05-08 18:22 | 46.24228 | 6.11848 | 1361 ft | 9 kts | 225° |
| 2026-05-08 18:22 | 46.24185 | 6.11786 | 1363 ft | 9 kts | 225° |
| 2026-05-08 18:23 | 46.24143 | 6.11724 | 1365 ft | 8 kts | 225° |
| 2026-05-08 18:23 | 46.24103 | 6.11664 | 1366 ft | 8 kts | 226° |
| 2026-05-08 18:23 | 46.24064 | 6.11606 | 1368 ft | 8 kts | 226° |
| 2026-05-08 18:23 | 46.24026 | 6.11550 | 1370 ft | 8 kts | 225° |
| 2026-05-08 18:24 | 46.23984 | 6.11489 | 1371 ft | 9 kts | 224° |
| 2026-05-08 18:24 | 46.23937 | 6.11421 | 1373 ft | 10 kts | 225° |
| 2026-05-08 18:24 | 46.23885 | 6.11344 | 1373 ft | 11 kts | 225° |
| 2026-05-08 18:24 | 46.23828 | 6.11260 | 1377 ft | 13 kts | 226° |
| 2026-05-08 18:25 | 46.23764 | 6.11166 | 1380 ft | 13 kts | 225° |
| 2026-05-08 18:25 | 46.23698 | 6.11078 | 1385 ft | 13 kts | 207° |
| 2026-05-08 18:25 | 46.23625 | 6.11131 | 1391 ft | 12 kts | 136° |
| 2026-05-08 18:25 | 46.23552 | 6.11132 | 1396 ft | 12 kts | 219° |
| 2026-05-08 18:26 | 46.23493 | 6.11048 | 1398 ft | 12 kts | 225° |
| 2026-05-08 18:26 | 46.23437 | 6.10965 | 1392 ft | 11 kts | 225° |
| 2026-05-08 18:26 | 46.23382 | 6.10885 | 1392 ft | 11 kts | 225° |
| 2026-05-08 18:26 | 46.23326 | 6.10811 | 1392 ft | 11 kts | 211° |
| 2026-05-08 18:27 | 46.23257 | 6.10777 | 1392 ft | 10 kts | 200° |
| 2026-05-08 18:27 | 46.23218 | 6.10737 | 1392 ft | 10 kts | 223° |
| 2026-05-08 18:27 | 46.23154 | 6.10641 | 1396 ft | 10 kts | 225° |
| 2026-05-08 18:27 | 46.23106 | 6.10571 | 1394 ft | 10 kts | 225° |
| 2026-05-08 18:28 | 46.23062 | 6.10538 | 1400 ft | 7 kts | 159° |
| 2026-05-08 18:28 | 46.23032 | 6.10570 | 1398 ft | 0 kts | 136° |